Time;durP1;ratioP1;P1;durP2;ratioP2;P2;SDS_P1;SDS_P2;PMS_P1;PMS_P2;Temp;Humidity;BMP_temperature;BMP_pressure;BME280_temperature;BME280_humidity;BME280_pressure;Samples;Min_cycle;Max_cycle;Signal;HPM_P1;HPM_P2
2022/10/06 00:01:32;;;;;;;2.33;2.00;;;14.70;99.90;;;;;;5033150;28;20467;-69
2022/10/06 00:03:59;;;;;;;1.80;1.70;;;14.60;99.90;;;;;;5033244;28;20480;-69
2022/10/06 00:06:25;;;;;;;2.27;2.07;;;14.70;99.90;;;;;;5033574;28;20455;-69
2022/10/06 00:08:52;;;;;;;2.27;2.07;;;14.60;99.90;;;;;;5033294;28;20610;-69
2022/10/06 00:11:19;;;;;;;2.43;1.83;;;14.50;99.90;;;;;;5032454;28;20460;-69
2022/10/06 00:13:46;;;;;;;4.57;2.27;;;14.40;99.90;;;;;;5033170;28;20491;-69
2022/10/06 00:16:16;;;;;;;2.07;1.90;;;14.40;99.90;;;;;;5033276;28;20477;-69
2022/10/06 00:18:44;;;;;;;2.80;2.30;;;14.30;99.90;;;;;;5033090;28;20465;-69
2022/10/06 00:21:11;;;;;;;2.77;2.47;;;14.30;99.90;;;;;;5032902;28;20812;-69
2022/10/06 00:23:38;;;;;;;3.23;2.57;;;14.30;99.90;;;;;;5033016;28;20824;-69
2022/10/06 00:26:05;;;;;;;4.03;2.07;;;14.30;99.90;;;;;;5032982;28;20464;-69
2022/10/06 00:28:31;;;;;;;4.17;2.60;;;14.40;99.90;;;;;;5033128;28;20832;-69
2022/10/06 00:31:01;;;;;;;1.87;1.73;;;14.40;99.90;;;;;;5032764;28;20476;-69
2022/10/06 00:33:27;;;;;;;2.47;2.27;;;14.40;99.90;;;;;;5032396;28;20457;-69
2022/10/06 00:35:59;;;;;;;2.33;2.10;;;14.40;99.90;;;;;;5032757;28;20764;-69
2022/10/06 00:38:26;;;;;;;2.53;2.17;;;14.40;99.90;;;;;;5032941;28;20994;-69
2022/10/06 00:40:53;;;;;;;2.20;1.90;;;14.40;99.90;;;;;;5032535;28;20472;-69
2022/10/06 00:43:48;;;;;;;2.27;1.77;;;14.40;99.90;;;;;;5032303;28;20964;-69
2022/10/06 00:46:21;;;;;;;3.53;2.23;;;14.30;99.90;;;;;;5008989;28;20465;-69
2022/10/06 00:48:52;;;;;;;3.53;2.10;;;14.20;99.90;;;;;;5032524;28;20517;-68
2022/10/06 00:51:22;;;;;;;4.27;2.20;;;14.10;99.90;;;;;;5032218;28;20461;-69
2022/10/06 00:53:49;;;;;;;2.37;2.17;;;14.10;99.90;;;;;;5032417;28;20488;-69
2022/10/06 00:56:15;;;;;;;2.73;1.93;;;14.10;99.90;;;;;;5032583;28;20512;-69
2022/10/06 00:58:42;;;;;;;2.27;2.07;;;14.10;99.90;;;;;;5032425;28;20956;-69
2022/10/06 01:01:12;;;;;;;2.17;1.97;;;14.10;99.90;;;;;;5031414;28;20461;-69
2022/10/06 01:03:43;;;;;;;2.93;2.20;;;14.10;99.90;;;;;;5031846;28;21011;-68
2022/10/06 01:06:10;;;;;;;2.30;2.10;;;14.00;99.90;;;;;;5032241;28;20468;-69
2022/10/06 01:08:39;;;;;;;3.17;2.80;;;14.00;99.90;;;;;;5032314;28;20465;-69
2022/10/06 01:11:09;;;;;;;3.23;1.90;;;13.90;99.90;;;;;;5031920;28;20457;-69
2022/10/06 01:13:35;;;;;;;2.27;2.07;;;13.90;99.90;;;;;;5031760;28;20496;-69
2022/10/06 01:16:07;;;;;;;2.67;2.10;;;13.90;99.90;;;;;;5031907;28;20503;-69
2022/10/06 01:18:38;;;;;;;2.20;2.00;;;13.90;99.90;;;;;;5032087;28;20461;-68
2022/10/06 01:21:11;;;;;;;2.20;2.00;;;13.90;99.90;;;;;;5031798;28;20461;-69
2022/10/06 01:23:40;;;;;;;2.23;2.03;;;13.80;99.90;;;;;;5031861;28;20543;-69
2022/10/06 01:26:10;;;;;;;2.20;1.97;;;13.80;99.90;;;;;;5031792;28;20964;-69
2022/10/06 01:28:38;;;;;;;3.50;2.30;;;13.70;99.90;;;;;;5031854;28;20462;-69
2022/10/06 01:31:06;;;;;;;3.07;2.70;;;13.70;99.90;;;;;;5031600;28;20492;-69
2022/10/06 01:33:32;;;;;;;2.90;2.60;;;13.60;99.90;;;;;;5031335;28;20485;-69
2022/10/06 01:35:59;;;;;;;1.80;1.70;;;13.60;99.90;;;;;;5031447;28;20862;-69
2022/10/06 01:38:26;;;;;;;1.83;1.73;;;13.50;99.90;;;;;;5031978;28;20521;-69
2022/10/06 01:40:54;;;;;;;2.47;2.27;;;13.50;99.90;;;;;;5031294;28;20457;-69
2022/10/06 01:43:21;;;;;;;2.40;2.00;;;13.40;99.90;;;;;;5031215;28;20480;-69
2022/10/06 01:45:54;;;;;;;2.67;2.13;;;13.40;99.90;;;;;;5031438;28;20492;-69
2022/10/06 01:48:21;;;;;;;2.37;2.17;;;13.40;99.90;;;;;;5031904;28;20545;-69
2022/10/06 01:50:47;;;;;;;3.27;2.60;;;13.40;99.90;;;;;;5031366;28;20470;-69
2022/10/06 01:53:14;;;;;;;2.30;1.87;;;13.40;99.90;;;;;;5030879;28;20465;-68
2022/10/06 01:55:41;;;;;;;2.80;1.80;;;13.40;99.90;;;;;;5031471;28;20488;-69
2022/10/06 01:58:10;;;;;;;2.03;1.87;;;13.50;99.90;;;;;;5031322;28;20452;-69
2022/10/06 02:00:37;;;;;;;2.40;2.20;;;13.50;99.90;;;;;;5031333;28;20461;-69
2022/10/06 02:03:04;;;;;;;3.20;2.13;;;13.50;99.90;;;;;;5030405;28;20487;-69
2022/10/06 02:05:31;;;;;;;2.23;2.03;;;13.50;99.90;;;;;;5031288;28;20492;-69
2022/10/06 02:07:58;;;;;;;2.30;2.10;;;13.50;99.90;;;;;;5030962;28;20465;-69
2022/10/06 02:10:24;;;;;;;1.70;1.37;;;13.40;99.90;;;;;;5031303;28;20461;-69
2022/10/06 02:12:51;;;;;;;2.47;2.27;;;13.40;99.90;;;;;;5029981;28;20871;-69
2022/10/06 02:15:20;;;;;;;2.30;2.07;;;13.40;99.90;;;;;;5031070;28;20489;-69
2022/10/06 02:17:47;;;;;;;2.53;2.10;;;13.40;99.90;;;;;;5030931;28;20520;-69
2022/10/06 02:20:14;;;;;;;3.73;2.00;;;13.40;99.90;;;;;;5031005;28;20461;-69
2022/10/06 02:22:42;;;;;;;2.07;1.60;;;13.30;99.90;;;;;;5030438;28;20833;-69
2022/10/06 02:25:09;;;;;;;2.30;1.80;;;13.20;99.90;;;;;;5030769;28;20543;-69
2022/10/06 02:27:36;;;;;;;2.10;1.90;;;13.20;99.90;;;;;;5030967;28;20468;-69
2022/10/06 02:30:04;;;;;;;2.30;2.10;;;13.20;99.90;;;;;;5030532;28;20960;-69
2022/10/06 02:32:34;;;;;;;3.90;2.30;;;13.10;99.90;;;;;;5030302;28;20552;-69
2022/10/06 02:35:02;;;;;;;2.37;1.90;;;13.10;99.90;;;;;;5030329;28;21018;-69
2022/10/06 02:37:29;;;;;;;2.40;2.07;;;13.00;99.90;;;;;;5030960;28;20504;-69
2022/10/06 02:39:56;;;;;;;4.67;2.23;;;12.90;99.90;;;;;;5030444;28;20468;-69
2022/10/06 02:42:22;;;;;;;1.90;1.80;;;12.90;99.90;;;;;;5030325;28;20472;-69
2022/10/06 02:44:51;;;;;;;3.00;2.20;;;12.80;99.90;;;;;;5030447;28;20575;-70
2022/10/06 02:47:18;;;;;;;4.60;2.50;;;12.80;99.90;;;;;;5030780;28;20504;-69
2022/10/06 02:49:46;;;;;;;2.57;2.00;;;12.70;99.90;;;;;;5030573;28;20849;-69
2022/10/06 02:52:14;;;;;;;3.67;2.00;;;12.70;99.90;;;;;;5029934;28;20464;-69
2022/10/06 02:54:41;;;;;;;3.17;2.23;;;12.60;99.90;;;;;;5030667;28;20531;-69
2022/10/06 02:57:07;;;;;;;2.40;2.20;;;12.60;99.90;;;;;;5030275;28;20535;-69
2022/10/06 02:59:34;;;;;;;2.30;2.10;;;12.60;99.90;;;;;;5030546;28;20475;-69
2022/10/06 03:02:01;;;;;;;3.43;2.27;;;12.50;99.90;;;;;;5029645;28;20496;-69
2022/10/06 03:04:28;;;;;;;3.67;2.50;;;12.40;99.90;;;;;;5030591;28;20488;-69
2022/10/06 03:06:56;;;;;;;2.47;2.27;;;12.40;99.90;;;;;;5030233;28;20461;-69
2022/10/06 03:09:23;;;;;;;4.10;2.27;;;12.40;99.90;;;;;;5030478;28;20468;-69
2022/10/06 03:11:49;;;;;;;2.80;2.10;;;12.30;99.90;;;;;;5029603;28;20465;-69
2022/10/06 03:14:16;;;;;;;3.27;2.37;;;12.30;99.90;;;;;;5030245;28;20483;-69
2022/10/06 03:16:43;;;;;;;2.47;2.10;;;12.30;99.90;;;;;;5030190;28;20495;-69
2022/10/06 03:19:11;;;;;;;6.43;3.00;;;12.30;99.90;;;;;;5030222;28;20467;-69
2022/10/06 03:21:39;;;;;;;3.08;2.30;;;12.20;99.90;;;;;;5029846;28;20949;-69
2022/10/06 03:24:07;;;;;;;4.60;2.47;;;12.20;99.90;;;;;;5029949;28;20234;-69
2022/10/06 03:26:36;;;;;;;2.67;2.47;;;12.20;99.90;;;;;;5033929;28;20460;-69
2022/10/06 03:29:04;;;;;;;2.58;2.30;;;12.10;99.90;;;;;;5033802;28;20460;-69
2022/10/06 03:31:30;;;;;;;2.40;2.20;;;12.10;99.90;;;;;;5033602;28;20203;-69
2022/10/06 03:33:57;;;;;;;2.27;2.07;;;12.10;99.90;;;;;;5032940;28;20221;-69
2022/10/06 03:36:26;;;;;;;3.73;2.90;;;12.10;99.90;;;;;;5032744;28;20915;-69
2022/10/06 03:38:54;;;;;;;3.80;2.27;;;12.20;99.90;;;;;;5032697;28;20467;-69
2022/10/06 03:41:23;;;;;;;2.87;2.57;;;12.20;99.90;;;;;;5032803;28;20464;-69
2022/10/06 03:43:51;;;;;;;3.30;2.30;;;12.20;99.90;;;;;;5032699;28;20522;-68
2022/10/06 03:46:20;;;;;;;3.40;2.00;;;12.20;99.90;;;;;;5033857;28;20815;-69
2022/10/06 03:48:47;;;;;;;4.35;2.30;;;12.20;99.90;;;;;;5033536;28;20457;-69
2022/10/06 03:51:17;;;;;;;3.10;2.60;;;12.30;99.90;;;;;;5030180;28;20206;-69
2022/10/06 03:53:44;;;;;;;2.88;2.30;;;12.30;99.90;;;;;;5032127;28;20575;-69
2022/10/06 03:56:13;;;;;;;2.70;2.30;;;12.40;99.90;;;;;;5030755;28;20253;-69
2022/10/06 03:58:43;;;;;;;4.00;2.47;;;12.40;99.90;;;;;;5030865;28;20468;-69
2022/10/06 04:01:13;;;;;;;2.83;2.47;;;12.50;99.90;;;;;;5031365;28;20844;-69
2022/10/06 04:03:40;;;;;;;2.60;2.37;;;12.50;99.90;;;;;;5032453;28;20218;-69
2022/10/06 04:06:12;;;;;;;2.83;2.57;;;12.50;99.90;;;;;;5032122;28;20454;-69
2022/10/06 04:08:40;;;;;;;2.33;2.13;;;12.50;99.90;;;;;;5032020;28;20453;-69
2022/10/06 04:11:08;;;;;;;2.50;2.10;;;12.60;99.90;;;;;;5031762;28;20484;-69
2022/10/06 04:13:35;;;;;;;2.93;2.43;;;12.60;99.90;;;;;;5031458;28;20500;-70
2022/10/06 04:16:11;;;;;;;3.57;2.50;;;12.70;99.90;;;;;;5031736;28;20485;-69
2022/10/06 04:18:38;;;;;;;2.03;1.90;;;12.70;99.90;;;;;;5032780;28;20514;-70
2022/10/06 04:21:05;;;;;;;4.43;2.77;;;12.80;99.90;;;;;;5032446;28;20468;-69
2022/10/06 04:23:32;;;;;;;2.83;2.53;;;12.80;99.90;;;;;;5031686;28;20460;-70
2022/10/06 04:26:01;;;;;;;3.93;2.53;;;12.80;99.90;;;;;;5032081;28;20199;-69
2022/10/06 04:28:28;;;;;;;2.90;2.33;;;12.80;99.90;;;;;;5031892;28;21026;-69
2022/10/06 04:30:56;;;;;;;2.30;2.10;;;12.80;99.90;;;;;;5031253;28;20457;-69
2022/10/06 04:33:24;;;;;;;2.93;2.40;;;12.80;99.90;;;;;;5031889;28;20821;-69
2022/10/06 04:35:57;;;;;;;2.47;2.27;;;12.70;99.90;;;;;;5030690;28;20465;-69
2022/10/06 04:38:24;;;;;;;2.40;2.20;;;12.70;99.90;;;;;;5032853;28;20571;-69
2022/10/06 04:40:51;;;;;;;2.63;2.13;;;12.70;99.90;;;;;;5032765;28;20956;-69
2022/10/06 04:43:18;;;;;;;3.03;2.53;;;12.60;99.90;;;;;;5032316;28;20457;-69
2022/10/06 04:45:44;;;;;;;3.00;2.33;;;12.60;99.90;;;;;;5032927;28;21024;-70
2022/10/06 04:48:11;;;;;;;2.33;2.13;;;12.50;99.90;;;;;;5032864;28;20472;-70
2022/10/06 04:50:39;;;;;;;2.30;2.10;;;12.60;99.90;;;;;;5032859;28;20602;-69
2022/10/06 04:53:06;;;;;;;4.22;2.70;;;12.50;99.90;;;;;;5031977;28;20472;-69
2022/10/06 04:55:32;;;;;;;2.57;2.30;;;12.50;99.90;;;;;;5032970;28;20233;-69
2022/10/06 04:57:59;;;;;;;3.17;1.70;;;12.40;99.90;;;;;;5033185;28;20498;-69
2022/10/06 05:00:26;;;;;;;2.58;1.98;;;12.40;99.90;;;;;;5033634;28;20470;-69
2022/10/06 05:02:54;;;;;;;2.63;2.43;;;12.40;99.90;;;;;;5032816;28;20209;-69
2022/10/06 05:05:21;;;;;;;4.70;2.77;;;12.30;99.90;;;;;;5032688;28;20480;-69
2022/10/06 05:07:49;;;;;;;2.47;2.28;;;12.30;99.90;;;;;;5032401;28;20456;-69
2022/10/06 05:10:16;;;;;;;2.60;2.15;;;12.30;99.90;;;;;;5032448;28;20641;-70
2022/10/06 05:12:43;;;;;;;3.40;2.60;;;12.30;99.90;;;;;;5186466;22;20229;-67
2022/10/06 05:15:10;;;;;;;2.10;1.97;;;12.30;99.90;;;;;;5031693;28;20229;-67
2022/10/06 05:17:37;;;;;;;2.53;2.33;;;12.20;99.90;;;;;;5032151;28;20480;-69
2022/10/06 05:20:04;;;;;;;2.70;2.30;;;12.20;99.90;;;;;;5031899;28;20461;-68
2022/10/06 05:22:31;;;;;;;3.10;2.28;;;12.30;99.90;;;;;;5031690;28;20483;-68
2022/10/06 05:24:59;;;;;;;2.90;2.60;;;12.30;99.90;;;;;;5031805;28;20226;-68
2022/10/06 05:27:26;;;;;;;3.47;2.83;;;12.30;99.90;;;;;;5032027;28;20464;-68
2022/10/06 05:29:52;;;;;;;2.30;2.10;;;12.30;99.90;;;;;;5031904;28;20465;-68
2022/10/06 05:32:19;;;;;;;2.27;1.93;;;12.40;99.90;;;;;;5031385;28;20468;-69
2022/10/06 05:34:46;;;;;;;3.90;3.20;;;12.40;99.90;;;;;;5031840;28;20488;-68
2022/10/06 05:37:12;;;;;;;2.33;2.13;;;12.40;99.90;;;;;;5031537;28;21034;-68
2022/10/06 05:39:39;;;;;;;3.27;2.57;;;12.40;99.90;;;;;;5031806;28;20465;-68
2022/10/06 05:42:07;;;;;;;2.30;1.97;;;12.40;99.90;;;;;;5030809;28;20816;-69
2022/10/06 05:44:34;;;;;;;3.00;2.57;;;12.50;99.90;;;;;;5031680;28;20477;-68
2022/10/06 05:47:00;;;;;;;2.77;2.57;;;12.50;99.90;;;;;;5031407;28;20457;-69
2022/10/06 05:49:27;;;;;;;3.20;2.70;;;12.50;99.90;;;;;;5031136;28;20844;-68
2022/10/06 05:51:54;;;;;;;2.90;2.37;;;12.50;99.90;;;;;;5030718;28;20465;-68
2022/10/06 05:54:21;;;;;;;2.83;2.20;;;12.50;99.90;;;;;;5031477;28;20854;-68
2022/10/06 05:56:48;;;;;;;2.47;2.27;;;12.50;99.90;;;;;;5031231;28;21031;-68
2022/10/06 05:59:16;;;;;;;3.20;2.90;;;12.60;99.90;;;;;;5031300;28;20484;-69
2022/10/06 06:01:43;;;;;;;2.67;2.30;;;12.60;99.90;;;;;;5030870;28;20829;-68
2022/10/06 06:04:12;;;;;;;3.03;2.73;;;12.60;99.90;;;;;;5031040;28;20481;-69
2022/10/06 06:06:40;;;;;;;2.63;2.43;;;12.60;99.90;;;;;;5031364;28;20555;-69
2022/10/06 06:09:10;;;;;;;3.80;2.50;;;12.60;99.90;;;;;;5031018;28;20476;-69
2022/10/06 06:11:38;;;;;;;3.83;2.43;;;12.70;99.90;;;;;;5030668;28;20471;-69
2022/10/06 06:14:07;;;;;;;2.77;2.57;;;12.70;99.90;;;;;;5029790;28;20881;-69
2022/10/06 06:16:35;;;;;;;2.67;2.47;;;12.70;99.90;;;;;;5030948;28;20500;-69
2022/10/06 06:19:03;;;;;;;4.03;2.80;;;12.70;99.90;;;;;;5031102;28;20984;-69
2022/10/06 06:21:30;;;;;;;2.70;2.50;;;12.80;99.90;;;;;;5030373;28;20547;-68
2022/10/06 06:23:57;;;;;;;2.60;2.40;;;12.80;99.90;;;;;;5030992;28;20484;-69
2022/10/06 06:26:25;;;;;;;2.73;2.37;;;12.80;99.90;;;;;;5030961;28;20465;-68
2022/10/06 06:28:53;;;;;;;3.07;2.73;;;12.80;99.90;;;;;;5031027;28;20469;-68
2022/10/06 06:31:21;;;;;;;3.83;2.90;;;12.90;99.90;;;;;;5030246;28;20461;-68
2022/10/06 06:33:51;;;;;;;3.57;3.27;;;12.90;99.90;;;;;;5031052;28;20490;-69
2022/10/06 06:36:23;;;;;;;3.50;2.47;;;12.90;99.90;;;;;;5030814;28;20460;-68
2022/10/06 06:38:52;;;;;;;2.40;2.20;;;13.00;99.90;;;;;;5031024;28;20457;-68
2022/10/06 06:41:20;;;;;;;2.67;2.40;;;13.00;99.90;;;;;;5030024;28;20461;-68
2022/10/06 06:43:48;;;;;;;3.23;2.80;;;13.00;99.90;;;;;;5030807;28;20481;-68
2022/10/06 06:46:16;;;;;;;3.00;2.70;;;13.10;99.90;;;;;;5030749;28;20953;-68
2022/10/06 06:48:44;;;;;;;2.87;2.60;;;13.10;99.90;;;;;;5030700;28;20467;-68
2022/10/06 06:51:12;;;;;;;3.70;2.63;;;13.20;99.90;;;;;;5030527;28;20563;-68
2022/10/06 06:53:40;;;;;;;3.60;2.93;;;13.30;99.90;;;;;;5030574;28;20476;-68
2022/10/06 06:56:08;;;;;;;3.27;2.83;;;13.40;99.90;;;;;;5030648;28;20472;-68
2022/10/06 06:58:35;;;;;;;3.50;3.13;;;13.40;99.90;;;;;;5030415;28;20481;-68
2022/10/06 07:01:06;;;;;;;4.07;2.83;;;13.50;99.90;;;;;;5033470;28;20464;-68
2022/10/06 07:03:33;;;;;;;5.13;2.80;;;13.60;99.90;;;;;;5034175;28;20496;-68
2022/10/06 07:06:07;;;;;;;4.23;3.50;;;13.70;99.90;;;;;;5034804;28;20468;-68
2022/10/06 07:08:36;;;;;;;4.70;2.70;;;13.80;99.90;;;;;;5034701;28;20461;-67
2022/10/06 07:11:14;;;;;;;3.80;2.77;;;13.90;99.90;;;;;;5034547;28;20464;-68
2022/10/06 07:13:41;;;;;;;3.13;2.63;;;14.00;99.90;;;;;;5034343;28;20495;-69
2022/10/06 07:27:08;;;;;;;4.17;2.57;;;14.40;99.90;;;;;;5034551;28;20511;-69
2022/10/06 07:29:35;;;;;;;2.07;1.87;;;14.50;99.90;;;;;;5033449;28;20460;-68
2022/10/06 07:32:02;;;;;;;2.97;2.20;;;14.50;99.90;;;;;;5033722;28;20461;-68
2022/10/06 07:34:29;;;;;;;1.40;1.30;;;14.60;99.90;;;;;;5033979;28;20477;-68
2022/10/06 07:36:56;;;;;;;2.23;1.90;;;14.60;99.90;;;;;;5034087;28;20485;-69
2022/10/06 07:39:24;;;;;;;2.20;1.80;;;14.60;99.90;;;;;;5034004;28;20471;-69
2022/10/06 07:41:51;;;;;;;1.70;1.60;;;14.60;99.90;;;;;;5033846;28;20471;-68
2022/10/06 07:44:18;;;;;;;2.30;1.77;;;14.70;99.90;;;;;;5033872;28;20488;-68
2022/10/06 07:46:44;;;;;;;1.73;1.53;;;14.70;99.90;;;;;;5033964;28;20460;-68
2022/10/06 07:49:12;;;;;;;2.63;1.80;;;14.70;99.90;;;;;;5034024;28;20464;-69
2022/10/06 07:51:38;;;;;;;1.90;1.60;;;14.70;99.90;;;;;;5033256;28;20484;-69
2022/10/06 07:54:07;;;;;;;1.77;1.67;;;14.80;99.90;;;;;;5033704;28;20477;-68
2022/10/06 07:56:35;;;;;;;1.80;1.63;;;14.80;99.90;;;;;;5033799;28;20588;-68
2022/10/06 07:59:01;;;;;;;2.13;1.50;;;14.80;99.90;;;;;;5033806;28;20857;-69
2022/10/06 08:01:29;;;;;;;3.30;2.07;;;14.80;99.90;;;;;;5033003;28;20496;-68
2022/10/06 08:03:56;;;;;;;2.20;1.70;;;14.90;99.90;;;;;;5033642;28;20571;-68
2022/10/06 08:06:23;;;;;;;3.83;1.87;;;14.90;99.90;;;;;;5033423;28;20460;-68
2022/10/06 08:08:52;;;;;;;2.07;1.50;;;15.00;99.90;;;;;;5029422;28;20949;-68
2022/10/06 08:11:19;;;;;;;2.70;1.97;;;15.00;99.90;;;;;;5031396;28;20449;-68
2022/10/06 08:13:50;;;;;;;2.27;1.77;;;15.10;99.90;;;;;;5030392;28;20514;-68
2022/10/06 08:16:20;;;;;;;1.87;1.33;;;15.10;99.90;;;;;;5032769;28;20457;-68
2022/10/06 08:18:52;;;;;;;1.73;1.40;;;15.20;99.90;;;;;;5029695;28;20524;-68
2022/10/06 08:21:20;;;;;;;1.60;1.43;;;15.20;99.90;;;;;;5032253;28;20475;-68
2022/10/06 08:23:49;;;;;;;1.50;1.40;;;15.30;99.90;;;;;;5032563;28;21071;-68
2022/10/06 08:26:18;;;;;;;1.80;1.70;;;15.30;99.90;;;;;;5032117;28;20945;-69
2022/10/06 08:28:46;;;;;;;1.50;1.40;;;15.30;99.90;;;;;;5032404;28;20453;-68
2022/10/06 08:31:16;;;;;;;4.30;1.60;;;15.30;99.90;;;;;;5032046;28;20457;-68
2022/10/06 08:33:44;;;;;;;2.17;1.60;;;15.40;99.90;;;;;;5032139;28;20523;-68
2022/10/06 08:36:13;;;;;;;1.80;1.50;;;15.40;99.90;;;;;;5032516;28;21171;-68
2022/10/06 08:38:41;;;;;;;2.17;1.70;;;15.50;99.90;;;;;;5032401;28;20907;-68
2022/10/06 08:41:19;;;;;;;3.23;1.63;;;15.60;99.90;;;;;;5031590;28;20497;-68
2022/10/06 08:43:52;;;;;;;1.60;1.47;;;15.70;99.90;;;;;;5032632;28;20484;-68
2022/10/06 08:46:22;;;;;;;2.20;1.67;;;15.80;99.90;;;;;;5032016;28;20523;-68
2022/10/06 08:48:51;;;;;;;2.70;1.70;;;15.90;99.90;;;;;;5032532;28;20818;-68
2022/10/06 08:51:31;;;;;;;3.00;1.47;;;16.00;99.90;;;;;;5031606;28;20834;-68
2022/10/06 08:54:09;;;;;;;1.50;1.10;;;15.90;99.90;;;;;;5031414;28;20484;-68
2022/10/06 08:56:47;;;;;;;2.10;1.30;;;15.90;99.90;;;;;;5031619;28;21010;-68
2022/10/06 08:59:15;;;;;;;1.13;0.97;;;15.90;99.90;;;;;;5031590;28;20860;-68
2022/10/06 09:01:46;;;;;;;1.33;1.23;;;15.90;99.90;;;;;;5031314;28;20468;-68
2022/10/06 09:04:24;;;;;;;2.90;1.20;;;16.00;99.90;;;;;;5031830;28;20477;-68
2022/10/06 09:06:59;;;;;;;1.23;1.10;;;16.00;99.90;;;;;;5031133;28;20465;-68
2022/10/06 09:09:43;;;;;;;6.20;1.20;;;16.10;99.90;;;;;;5031384;28;20537;-68
2022/10/06 09:12:18;;;;;;;1.83;1.20;;;16.10;99.90;;;;;;5031197;28;20457;-68
2022/10/06 09:14:50;;;;;;;1.97;1.10;;;16.10;99.90;;;;;;5031870;28;20503;-69
2022/10/06 09:17:23;;;;;;;2.23;1.53;;;16.00;99.90;;;;;;5029451;28;20457;-68
2022/10/06 09:19:54;;;;;;;2.80;1.83;;;16.10;99.90;;;;;;5011806;28;20462;-68
2022/10/06 09:22:23;;;;;;;1.77;1.30;;;16.20;99.90;;;;;;5010801;28;20465;-68
2022/10/06 09:24:54;;;;;;;2.10;1.60;;;16.30;99.90;;;;;;5012040;28;20871;-69
2022/10/06 09:27:24;;;;;;;1.63;1.17;;;16.40;99.90;;;;;;5012239;28;20468;-68
2022/10/06 09:29:51;;;;;;;4.10;1.40;;;16.50;99.90;;;;;;5011904;28;20458;-69
2022/10/06 09:32:22;;;;;;;1.47;1.17;;;16.70;99.90;;;;;;5011212;28;20695;-68
2022/10/06 09:34:51;;;;;;;2.97;1.40;;;16.80;99.90;;;;;;5012228;28;20509;-68
2022/10/06 09:37:19;;;;;;;2.33;1.37;;;16.80;99.90;;;;;;5011875;28;20465;-68
2022/10/06 09:39:48;;;;;;;3.83;1.40;;;16.80;99.90;;;;;;5011737;28;20469;-69
2022/10/06 09:42:19;;;;;;;1.60;1.10;;;16.70;99.90;;;;;;5010809;28;20457;-68
2022/10/06 09:45:02;;;;;;;2.50;1.50;;;16.60;99.90;;;;;;5011583;28;21012;-68
2022/10/06 09:47:43;;;;;;;2.07;1.20;;;16.70;99.90;;;;;;5010688;28;20981;-68
2022/10/06 09:50:22;;;;;;;2.30;1.13;;;16.70;99.90;;;;;;5011852;28;20460;-68
2022/10/06 09:53:15;;;;;;;4.83;1.53;;;16.80;99.90;;;;;;5011290;28;20458;-69
2022/10/06 09:56:03;;;;;;;1.23;1.03;;;17.00;99.90;;;;;;5011056;28;20457;-68
2022/10/06 09:58:33;;;;;;;2.40;1.20;;;17.10;99.90;;;;;;5011689;28;20524;-68
2022/10/06 10:01:02;;;;;;;2.63;1.77;;;17.10;99.90;;;;;;5011812;28;20481;-69
2022/10/06 10:03:44;;;;;;;3.63;1.57;;;17.10;99.90;;;;;;5015892;28;20830;-68
2022/10/06 10:06:22;;;;;;;1.33;1.13;;;17.20;99.90;;;;;;5030721;28;20471;-68
2022/10/06 10:08:48;;;;;;;2.87;1.27;;;17.10;99.90;;;;;;5030528;28;20940;-69
2022/10/06 10:14:16;;;;;;;1.77;1.43;;;17.10;99.90;;;;;;5030579;28;20480;-69
2022/10/06 10:16:44;;;;;;;2.50;1.67;;;17.20;99.90;;;;;;5030364;28;20480;-68
2022/10/06 10:19:24;;;;;;;1.90;1.10;;;17.30;99.90;;;;;;5030008;28;20489;-68
2022/10/06 10:21:55;;;;;;;1.63;1.20;;;17.60;99.90;;;;;;5030130;28;20483;-68
2022/10/06 10:24:37;;;;;;;6.23;1.70;;;17.80;99.90;;;;;;5029941;28;20543;-68
2022/10/06 10:27:13;;;;;;;3.57;1.50;;;17.90;99.90;;;;;;5030430;28;20461;-68
2022/10/06 10:29:58;;;;;;;3.13;1.63;;;17.90;99.90;;;;;;5030285;28;20527;-68
2022/10/06 10:32:38;;;;;;;4.13;1.50;;;17.90;99.90;;;;;;5026617;28;20972;-68
2022/10/06 10:35:16;;;;;;;2.07;1.57;;;17.90;99.90;;;;;;5030669;28;20480;-68
2022/10/06 10:37:50;;;;;;;1.77;1.33;;;17.80;99.90;;;;;;5030771;28;20543;-68
2022/10/06 10:40:27;;;;;;;2.07;1.10;;;17.90;99.90;;;;;;5030106;28;20548;-68
2022/10/06 10:43:01;;;;;;;1.50;1.40;;;17.90;99.90;;;;;;5025785;28;20465;-68
2022/10/06 10:45:32;;;;;;;1.90;1.60;;;18.20;99.90;;;;;;5029810;28;20481;-68
2022/10/06 10:48:00;;;;;;;2.70;1.40;;;18.40;99.90;;;;;;5030781;28;20507;-68
2022/10/06 10:50:33;;;;;;;1.30;1.10;;;18.40;99.90;;;;;;5029910;28;20464;-68
2022/10/06 10:53:08;;;;;;;1.50;1.40;;;18.30;99.90;;;;;;5027280;28;20468;-68
2022/10/06 10:55:41;;;;;;;3.70;1.57;;;18.40;99.90;;;;;;5029574;28;20492;-69
2022/10/06 10:58:16;;;;;;;1.83;1.20;;;18.70;99.90;;;;;;5029044;28;20480;-69
2022/10/06 11:00:48;;;;;;;2.80;1.20;;;19.10;99.90;;;;;;5030118;28;20464;-68
2022/10/06 11:03:15;;;;;;;1.30;1.20;;;19.60;99.90;;;;;;5030047;28;20468;-68
2022/10/06 11:06:02;;;;;;;3.53;1.33;;;19.90;99.90;;;;;;5029892;28;20473;-68
2022/10/06 11:08:36;;;;;;;2.33;1.20;;;20.20;99.90;;;;;;5029728;28;21148;-69
2022/10/06 11:11:09;;;;;;;2.37;1.20;;;20.50;99.90;;;;;;5029810;28;20559;-68
2022/10/06 11:13:43;;;;;;;2.20;1.43;;;20.60;99.90;;;;;;5029427;28;20484;-68
2022/10/06 11:16:24;;;;;;;2.10;0.93;;;20.50;99.90;;;;;;5029933;28;20470;-68
2022/10/06 11:19:07;;;;;;;2.47;1.10;;;20.20;99.90;;;;;;5029716;28;20858;-68
2022/10/06 11:21:40;;;;;;;1.73;1.20;;;19.70;99.90;;;;;;5028863;28;20465;-68
2022/10/06 11:24:15;;;;;;;2.60;1.23;;;19.30;99.90;;;;;;5029935;28;20859;-68
2022/10/06 11:27:17;;;;;;;2.50;1.10;;;19.10;99.90;;;;;;5029593;28;20472;-68
2022/10/06 11:29:56;;;;;;;2.90;1.30;;;19.00;99.90;;;;;;5029848;28;20470;-68
2022/10/06 11:32:31;;;;;;;1.80;1.13;;;19.00;99.90;;;;;;5028581;28;20473;-68
2022/10/06 11:34:58;;;;;;;3.03;1.57;;;18.90;99.90;;;;;;5029493;28;20555;-68
2022/10/06 11:37:35;;;;;;;2.63;1.90;;;19.10;99.90;;;;;;5029314;28;20467;-68
2022/10/06 11:40:21;;;;;;;1.13;1.00;;;19.40;99.90;;;;;;5029689;28;20512;-68
2022/10/06 11:42:55;;;;;;;1.30;1.10;;;19.80;99.90;;;;;;5028817;28;20464;-69
2022/10/06 11:45:27;;;;;;;1.70;1.17;;;20.00;99.90;;;;;;5029156;28;20991;-68
2022/10/06 11:48:16;;;;;;;3.03;1.40;;;20.20;99.90;;;;;;5033192;28;20465;-68
2022/10/06 11:50:43;;;;;;;1.73;1.33;;;20.20;99.90;;;;;;5033181;28;20475;-68
2022/10/06 11:53:27;;;;;;;2.10;1.30;;;20.20;99.90;;;;;;5032758;28;20462;-68
2022/10/06 11:56:35;;;;;;;1.63;1.17;;;20.00;99.90;;;;;;5032849;28;20467;-68
2022/10/06 11:59:09;;;;;;;2.03;1.23;;;20.10;99.90;;;;;;5033101;28;20495;-68
2022/10/06 12:01:56;;;;;;;1.30;1.20;;;20.30;99.90;;;;;;5032270;28;20466;-68
2022/10/06 12:04:25;;;;;;;1.90;1.40;;;20.30;99.90;;;;;;5032437;28;20909;-68
2022/10/06 12:07:01;;;;;;;4.30;1.43;;;20.30;99.90;;;;;;5032956;28;20554;-68
2022/10/06 12:10:14;;;;;;;3.20;1.50;;;20.40;99.90;;;;;;5032384;28;20465;-68
2022/10/06 12:12:55;;;;;;;2.60;1.10;;;20.40;99.90;;;;;;5032034;28;21287;-68
2022/10/06 12:16:01;;;;;;;1.90;1.47;;;20.30;99.90;;;;;;5032545;28;20488;-68
2022/10/06 12:18:40;;;;;;;2.03;1.50;;;20.10;99.90;;;;;;5032243;28;20548;-68
2022/10/06 12:21:38;;;;;;;2.20;1.27;;;19.90;99.90;;;;;;5032267;28;20462;-68
2022/10/06 12:24:25;;;;;;;1.77;1.40;;;19.70;99.90;;;;;;5032804;28;20897;-68
2022/10/06 12:27:15;;;;;;;1.20;1.10;;;19.80;99.90;;;;;;5032370;28;20528;-68
2022/10/06 12:29:49;;;;;;;3.63;1.20;;;19.60;99.90;;;;;;5019519;28;20817;-68
2022/10/06 12:32:29;;;;;;;1.73;1.40;;;19.40;99.90;;;;;;5031705;28;20461;-68
2022/10/06 12:35:02;;;;;;;3.03;1.63;;;19.10;99.90;;;;;;5032074;28;20513;-68
2022/10/06 12:37:40;;;;;;;3.60;1.70;;;18.80;99.90;;;;;;5032215;28;20511;-68
2022/10/06 12:40:41;;;;;;;2.00;1.23;;;18.60;99.90;;;;;;5032047;28;20488;-68
2022/10/06 12:43:57;;;;;;;1.97;1.20;;;18.40;99.90;;;;;;5031872;28;20460;-68
2022/10/06 12:46:48;;;;;;;2.43;1.30;;;18.40;99.90;;;;;;5022042;28;20461;-68
2022/10/06 12:49:40;;;;;;;2.63;1.33;;;18.40;99.90;;;;;;5029144;28;20913;-68
2022/10/06 12:52:19;;;;;;;1.60;1.50;;;18.30;99.90;;;;;;5031699;28;20571;-68
2022/10/06 12:54:58;;;;;;;2.43;1.33;;;18.20;99.90;;;;;;5031958;28;20488;-68
2022/10/06 12:57:29;;;;;;;3.00;2.07;;;18.10;99.90;;;;;;5031490;28;20465;-68
2022/10/06 12:59:56;;;;;;;2.07;1.23;;;18.00;99.90;;;;;;5030719;28;20595;-68
2022/10/06 13:02:26;;;;;;;1.73;1.20;;;17.90;99.90;;;;;;5031051;28;20468;-68
2022/10/06 13:04:55;;;;;;;3.50;1.40;;;17.90;99.90;;;;;;5031803;28;20588;-68
2022/10/06 13:07:24;;;;;;;3.93;1.80;;;17.80;99.90;;;;;;5031403;28;20956;-67
2022/10/06 13:09:54;;;;;;;2.53;1.30;;;17.80;99.90;;;;;;5031219;28;20472;-68
2022/10/06 13:12:30;;;;;;;1.47;1.13;;;17.80;99.90;;;;;;5030946;28;20464;-68
2022/10/06 13:15:22;;;;;;;1.27;1.03;;;17.70;99.90;;;;;;5031556;28;20489;-68
2022/10/06 13:17:53;;;;;;;2.93;1.47;;;17.80;99.90;;;;;;5031476;28;20460;-68
2022/10/06 13:20:31;;;;;;;3.67;1.70;;;17.80;99.90;;;;;;5031270;28;20581;-68
2022/10/06 13:23:00;;;;;;;3.50;2.13;;;17.80;99.90;;;;;;5030607;28;20512;-68